Time;durP1;ratioP1;P1;durP2;ratioP2;P2;SDS_P1;SDS_P2;PMS_P1;PMS_P2;Temp;Humidity;BMP_temperature;BMP_pressure;BME280_temperature;BME280_humidity;BME280_pressure;Samples;Min_cycle;Max_cycle;Signal;HPM_P1;HPM_P2
2022/01/04 00:01:15;;;;;;;;;2.50;2.50;;;;;21.77;45.15;99935.09;5059449;28;51154;-49
2022/01/04 00:03:43;;;;;;;;;2.25;1.00;;;;;21.76;44.75;99917.72;5062742;28;51110;-46
2022/01/04 00:06:09;;;;;;;;;2.00;2.00;;;;;21.75;45.39;99909.72;5070897;28;51165;-47
2022/01/04 00:08:34;;;;;;;;;1.25;1.25;;;;;21.73;45.30;99901.69;5066142;28;51017;-49
2022/01/04 00:11:09;;;;;;;;;1.00;1.00;;;;;21.73;45.02;99907.22;5064975;28;51080;-47
2022/01/04 00:13:35;;;;;;;;;1.75;1.00;;;;;21.73;45.06;99900.88;5063754;28;51376;-46
2022/01/04 00:16:03;;;;;;;;;1.00;1.00;;;;;21.72;45.15;99890.94;5066766;28;51280;-47
2022/01/04 00:18:29;;;;;;;;;1.50;1.50;;;;;21.70;45.00;99885.66;5066527;27;51529;-49
2022/01/04 00:20:54;;;;;;;;;1.75;1.00;;;;;21.71;45.27;99878.25;5073622;28;51912;-46
2022/01/04 00:23:20;;;;;;;;;1.00;1.00;;;;;21.70;44.83;99868.31;5066436;28;51049;-43
2022/01/04 00:25:46;;;;;;;;;1.00;1.00;;;;;21.69;45.05;99863.88;5060890;28;52264;-50
2022/01/04 00:28:11;;;;;;;;;1.75;1.75;;;;;21.69;44.72;99861.13;5079673;27;51448;-48
2022/01/04 00:30:38;;;;;;;;;1.25;1.00;;;;;21.67;44.87;99849.50;5067522;28;51787;-48
2022/01/04 00:33:06;;;;;;;;;1.00;1.00;;;;;21.67;45.12;99844.81;5060178;28;51104;-48
2022/01/04 00:35:33;;;;;;;;;1.50;1.00;;;;;21.66;44.83;99842.31;5066575;28;51213;-49
2022/01/04 00:37:58;;;;;;;;;0.50;0.50;;;;;21.65;45.28;99826.88;5072675;27;51072;-45
2022/01/04 00:40:25;;;;;;;;;0.75;0.75;;;;;21.65;45.19;99824.13;5063952;28;52663;-48
2022/01/04 00:42:52;;;;;;;;;1.75;1.00;;;;;21.64;45.13;99817.78;5063165;28;51346;-48
2022/01/04 00:45:18;;;;;;;;;2.00;1.00;;;;;21.63;45.36;99813.34;5063936;28;50924;-47
2022/01/04 00:50:19;;;;;;;;;1.75;1.50;;;;;21.62;44.92;99800.66;5058628;28;51088;-47
2022/01/04 00:52:44;;;;;;;;;1.25;1.25;;;;;21.61;44.90;99799.00;5055811;28;51396;-44
2022/01/04 00:55:09;;;;;;;;;2.00;1.00;;;;;21.61;44.70;99793.50;5059838;28;51025;-48
2022/01/04 00:57:35;;;;;;;;;1.00;1.00;;;;;21.61;44.85;99796.25;5067565;28;51131;-48
2022/01/04 01:00:00;;;;;;;;;2.50;1.00;;;;;21.60;45.14;99783.56;5064400;28;52663;-50
2022/01/04 01:02:26;;;;;;;;;0.00;0.00;;;;;21.58;45.41;99783.81;5062250;28;51691;-48
2022/01/04 01:04:51;;;;;;;;;1.00;1.00;;;;;21.59;45.19;99779.13;5066724;28;51573;-51
2022/01/04 01:07:16;;;;;;;;;1.00;1.00;;;;;21.58;45.00;99758.19;5066914;28;51069;-48
2022/01/04 01:09:56;;;;;;;;;0.00;0.00;;;;;21.57;45.50;99756.50;5063232;28;52029;-49
2022/01/04 01:12:21;;;;;;;;;1.00;1.00;;;;;21.57;44.92;99750.97;5063797;27;51282;-49
2022/01/04 01:14:47;;;;;;;;;0.00;0.00;;;;;21.56;45.48;99747.38;5063590;28;51215;-50
2022/01/04 01:17:12;;;;;;;;;0.00;0.00;;;;;21.55;44.95;99742.97;5067838;28;51489;-47
2022/01/04 01:19:38;;;;;;;;;1.00;0.00;;;;;21.55;45.26;99742.13;5066596;28;51094;-47
2022/01/04 01:22:04;;;;;;;;;1.00;1.00;;;;;21.53;45.05;99736.06;5061423;28;51086;-50
2022/01/04 01:24:29;;;;;;;;;1.00;1.00;;;;;21.54;45.21;99737.72;5056713;28;51006;-49
2022/01/04 01:26:54;;;;;;;;;1.00;1.00;;;;;21.52;45.41;99732.47;5065912;28;51017;-46
2022/01/04 01:29:20;;;;;;;;;0.50;0.00;;;;;21.53;45.56;99731.38;5064398;28;51873;-44
2022/01/04 01:31:45;;;;;;;;;0.75;0.75;;;;;21.52;45.67;99723.38;5071263;28;51294;-50
2022/01/04 01:34:10;;;;;;;;;1.00;1.00;;;;;21.52;45.50;99718.69;5058251;28;51319;-45
2022/01/04 01:36:36;;;;;;;;;0.25;0.25;;;;;21.52;45.19;99712.34;5065428;28;51294;-46
2022/01/04 01:39:03;;;;;;;;;0.00;0.00;;;;;21.51;45.48;99713.44;5071913;28;51067;-43
2022/01/04 01:41:29;;;;;;;;;1.25;1.25;;;;;21.50;45.70;99704.34;5066764;28;51252;-45
2022/01/04 01:43:54;;;;;;;;;0.00;0.00;;;;;21.50;44.91;99700.75;5068170;28;51136;-47
2022/01/04 01:46:19;;;;;;;;;0.00;0.00;;;;;21.50;45.50;99698.00;5069880;28;51313;-47
2022/01/04 01:48:45;;;;;;;;;0.00;0.00;;;;;21.49;45.17;99686.16;5066958;27;51174;-49
2022/01/04 01:51:10;;;;;;;;;0.00;0.00;;;;;21.48;45.60;99678.16;5064861;28;51037;-49
2022/01/04 01:53:36;;;;;;;;;1.00;1.00;;;;;21.47;45.58;99669.06;5068383;27;51035;-50
2022/01/04 01:56:02;;;;;;;;;0.50;0.50;;;;;21.47;45.25;99673.72;5063884;28;51081;-49
2022/01/04 01:58:27;;;;;;;;;0.00;0.00;;;;;21.47;45.26;99665.47;5069826;28;51150;-47
2022/01/04 02:00:52;;;;;;;;;0.00;0.00;;;;;21.45;45.11;99668.44;5069838;28;51244;-46
2022/01/04 02:03:18;;;;;;;;;0.00;0.00;;;;;21.45;45.18;99656.59;5067632;28;51213;-51
2022/01/04 02:05:43;;;;;;;;;1.00;0.00;;;;;21.44;45.09;99665.94;5072661;28;50978;-51
2022/01/04 02:08:10;;;;;;;;;0.50;0.00;;;;;21.43;45.44;99658.78;5068111;28;51673;-52
2022/01/04 02:10:35;;;;;;;;;0.00;0.00;;;;;21.43;45.14;99658.78;5068320;28;51096;-50
2022/01/04 02:13:01;;;;;;;;;0.50;0.50;;;;;21.42;45.21;99657.13;5076614;28;51302;-49
2022/01/04 02:15:29;;;;;;;;;1.00;1.00;;;;;21.42;45.28;99646.94;5068787;27;51436;-46
2022/01/04 02:17:54;;;;;;;;;1.00;1.00;;;;;21.42;45.13;99640.59;5072739;27;52043;-47
2022/01/04 02:20:20;;;;;;;;;0.00;0.00;;;;;21.40;45.07;99638.09;5075765;28;51184;-50
2022/01/04 02:22:47;;;;;;;;;0.00;0.00;;;;;21.39;45.03;99639.19;5066780;28;51361;-52
2022/01/04 02:25:13;;;;;;;;;1.00;0.00;;;;;21.39;45.52;99628.16;5066217;28;51113;-44
2022/01/04 02:27:40;;;;;;;;;0.00;0.00;;;;;21.38;45.41;99621.00;5073815;27;51837;-48
2022/01/04 02:30:10;;;;;;;;;0.00;0.00;;;;;21.39;45.61;99625.41;5065397;28;51259;-50
2022/01/04 02:32:35;;;;;;;;;0.00;0.00;;;;;21.38;45.46;99617.41;5073846;28;51408;-51
2022/01/04 02:35:02;;;;;;;;;0.00;0.00;;;;;21.37;45.78;99601.97;5066013;28;50959;-51
2022/01/04 02:37:28;;;;;;;;;0.00;0.00;;;;;21.38;45.56;99600.88;5067542;28;51933;-48
2022/01/04 02:39:54;;;;;;;;;1.00;1.00;;;;;21.37;45.14;99599.22;5062238;28;51065;-48
2022/01/04 02:42:20;;;;;;;;;0.00;0.00;;;;;21.35;45.23;99585.69;5068919;28;51004;-47
2022/01/04 02:44:46;;;;;;;;;0.00;0.00;;;;;21.36;45.09;99589.28;5060289;28;51144;-49
2022/01/04 02:47:12;;;;;;;;;0.00;0.00;;;;;21.35;45.33;99582.09;5066716;28;51916;-48
2022/01/04 02:49:38;;;;;;;;;0.00;0.00;;;;;21.35;45.08;99576.59;5069577;28;51319;-48
2022/01/04 02:52:04;;;;;;;;;1.00;0.00;;;;;21.32;45.27;99576.03;5058059;28;51176;-47
2022/01/04 02:54:29;;;;;;;;;0.00;0.00;;;;;21.32;45.13;99565.00;5068866;28;51104;-50
2022/01/04 02:56:55;;;;;;;;;0.00;0.00;;;;;21.32;45.09;99558.66;5066400;28;52794;-45
2022/01/04 02:59:20;;;;;;;;;0.00;0.00;;;;;21.32;45.13;99548.47;5074874;27;51232;-48
2022/01/04 03:01:46;;;;;;;;;0.00;0.00;;;;;21.33;45.58;99538.28;5068387;27;51203;-48
2022/01/04 03:04:11;;;;;;;;;0.00;0.00;;;;;21.31;45.56;99534.97;5065750;28;50983;-48
2022/01/04 03:06:37;;;;;;;;;0.25;0.00;;;;;21.30;45.50;99528.63;5059994;28;51038;-49
2022/01/04 03:09:06;;;;;;;;;0.00;0.00;;;;;21.30;45.12;99528.63;5065898;28;51122;-46
2022/01/04 03:11:32;;;;;;;;;0.00;0.00;;;;;21.29;45.04;99524.22;5067093;28;51097;-45
2022/01/04 03:13:58;;;;;;;;;0.00;0.00;;;;;21.29;45.04;99524.22;5067409;28;51174;-51
2022/01/04 03:16:23;;;;;;;;;0.00;0.00;;;;;21.29;45.07;99531.66;5065383;28;52721;-47
2022/01/04 03:19:10;;;;;;;;;0.00;0.00;;;;;21.28;45.54;99522.56;5060396;27;51116;-50
2022/01/04 03:21:44;;;;;;;;;0.00;0.00;;;;;21.27;45.23;99520.91;5060731;28;51148;-51
2022/01/04 03:24:13;;;;;;;;;0.75;0.00;;;;;21.27;45.56;99503.53;5066570;28;51180;-44
2022/01/04 03:26:39;;;;;;;;;0.00;0.00;;;;;21.26;45.07;99496.38;5074511;27;51090;-47
2022/01/04 03:29:06;;;;;;;;;0.50;0.00;;;;;21.25;45.07;99498.22;5060554;28;51571;-47
2022/01/04 03:31:32;;;;;;;;;0.75;0.00;;;;;21.25;45.58;99500.16;5076554;27;51057;-45
2022/01/04 03:33:58;;;;;;;;;0.00;0.00;;;;;21.25;45.70;99491.91;5065432;28;51212;-50
2022/01/04 03:36:24;;;;;;;;;0.00;0.00;;;;;21.25;45.54;99497.41;5065020;28;51900;-50
2022/01/04 03:38:52;;;;;;;;;1.00;0.00;;;;;21.25;45.03;99497.41;5058713;28;51191;-44
2022/01/04 03:41:18;;;;;;;;;0.00;0.00;;;;;21.24;45.63;99484.72;5067899;28;51196;-49
2022/01/04 03:43:44;;;;;;;;;0.50;0.00;;;;;21.24;45.19;99473.72;5061778;28;51116;-45
2022/01/04 03:46:10;;;;;;;;;0.00;0.00;;;;;21.22;45.43;99481.41;5066013;28;51738;-50
2022/01/04 03:48:36;;;;;;;;;0.00;0.00;;;;;21.22;45.63;99479.47;5064755;27;50952;-50
2022/01/04 03:51:03;;;;;;;;;0.00;0.00;;;;;21.22;45.51;99484.16;5061315;28;51187;-49
2022/01/04 03:53:28;;;;;;;;;1.00;0.00;;;;;21.22;45.37;99475.91;5066104;28;51402;-50
2022/01/04 03:55:54;;;;;;;;;0.00;0.00;;;;;21.22;45.32;99470.38;5061084;28;51231;-47
2022/01/04 03:58:19;;;;;;;;;0.00;0.00;;;;;21.20;45.12;99467.91;5064197;28;51159;-49
2022/01/04 04:00:45;;;;;;;;;0.00;0.00;;;;;21.21;45.22;99468.72;5062681;28;51690;-51
2022/01/04 04:03:10;;;;;;;;;0.00;0.00;;;;;21.20;45.05;99480.84;5071917;28;51379;-49
2022/01/04 04:05:36;;;;;;;;;0.00;0.00;;;;;21.19;45.47;99479.19;5063271;28;51100;-49
2022/01/04 04:08:01;;;;;;;;;0.00;0.00;;;;;21.18;45.65;99475.59;5068332;28;51172;-46
2022/01/04 04:10:26;;;;;;;;;1.00;0.00;;;;;21.18;45.08;99469.25;5068783;28;51126;-47
2022/01/04 04:12:52;;;;;;;;;0.00;0.00;;;;;21.17;45.28;99473.09;5071330;28;51128;-50
2022/01/04 04:15:17;;;;;;;;;0.00;0.00;;;;;21.16;45.07;99475.03;5066475;28;51864;-50
2022/01/04 04:17:45;;;;;;;;;0.00;0.00;;;;;21.16;45.18;99476.94;5067506;28;51108;-48
2022/01/04 04:20:11;;;;;;;;;0.00;0.00;;;;;21.16;45.74;99477.78;5063369;28;50999;-49
2022/01/04 04:22:36;;;;;;;;;0.00;0.00;;;;;21.16;45.46;99485.22;5068714;28;51392;-49
2022/01/04 04:25:02;;;;;;;;;0.00;0.00;;;;;21.15;45.13;99484.34;5061321;28;51725;-47
2022/01/04 04:27:27;;;;;;;;;0.00;0.00;;;;;21.15;45.07;99487.09;5067875;27;51255;-44
2022/01/04 04:29:53;;;;;;;;;0.00;0.00;;;;;21.15;45.50;99483.53;5062654;28;51269;-45
2022/01/04 04:32:18;;;;;;;;;0.00;0.00;;;;;21.14;45.47;99496.47;5059694;28;51296;-49
2022/01/04 04:34:43;;;;;;;;;0.00;0.00;;;;;21.14;45.09;99495.63;5068122;28;52042;-48
2022/01/04 04:37:08;;;;;;;;;0.00;0.00;;;;;21.13;45.63;99483.78;5063853;28;51081;-47
2022/01/04 04:39:34;;;;;;;;;0.00;0.00;;;;;21.13;45.21;99486.53;5063833;28;51176;-48
2022/01/04 04:41:59;;;;;;;;;0.00;0.00;;;;;21.12;45.47;99490.38;5066259;28;51037;-48
2022/01/04 04:44:25;;;;;;;;;0.00;0.00;;;;;21.11;45.42;99494.22;5065909;28;51028;-49
2022/01/04 04:46:50;;;;;;;;;0.00;0.00;;;;;21.11;45.65;99498.91;5064202;28;51100;-48
2022/01/04 04:49:16;;;;;;;;;0.00;0.00;;;;;21.10;45.14;99495.31;5068476;28;51412;-45
2022/01/04 04:51:42;;;;;;;;;0.00;0.00;;;;;21.10;45.59;99492.56;5060697;28;51330;-48
2022/01/04 04:54:07;;;;;;;;;0.00;0.00;;;;;21.10;45.51;99509.09;5069979;28;51778;-49
2022/01/04 04:56:34;;;;;;;;;0.00;0.00;;;;;21.10;45.17;99511.84;5060722;28;51193;-47
2022/01/04 04:58:59;;;;;;;;;0.00;0.00;;;;;21.08;45.38;99505.78;5066881;27;50908;-47
2022/01/04 05:01:25;;;;;;;;;0.00;0.00;;;;;21.08;45.50;99508.53;5069474;28;51437;-50
2022/01/04 05:03:52;;;;;;;;;0.00;0.00;;;;;21.08;45.50;99519.53;5065479;28;51012;-46
2022/01/04 05:06:18;;;;;;;;;0.00;0.00;;;;;21.08;45.03;99513.19;5074093;28;51332;-48
2022/01/04 05:08:43;;;;;;;;;0.00;0.00;;;;;21.07;45.00;99509.63;5064181;28;51206;-52
2022/01/04 05:11:08;;;;;;;;;0.00;0.00;;;;;21.07;45.30;99519.81;5067971;28;51406;-48
2022/01/04 05:13:33;;;;;;;;;0.00;0.00;;;;;21.05;45.08;99517.31;5063293;28;51003;-48
2022/01/04 05:15:59;;;;;;;;;0.00;0.00;;;;;21.05;45.00;99520.06;5071251;28;51280;-50
2022/01/04 05:18:24;;;;;;;;;0.00;0.00;;;;;21.05;45.28;99525.56;5068421;28;51039;-47
2022/01/04 05:20:49;;;;;;;;;0.00;0.00;;;;;21.04;45.55;99526.63;5069850;28;50993;-47
2022/01/04 05:23:15;;;;;;;;;0.00;0.00;;;;;21.03;45.60;99527.72;5065212;28;51076;-52
2022/01/04 05:25:40;;;;;;;;;0.00;0.00;;;;;21.03;45.30;99533.22;5068949;28;51199;-47
2022/01/04 05:28:05;;;;;;;;;0.00;0.00;;;;;21.02;45.16;99531.56;5070278;27;51537;-47
2022/01/04 05:30:31;;;;;;;;;0.00;0.00;;;;;21.03;45.06;99533.22;5066991;28;51233;-48
2022/01/04 05:32:56;;;;;;;;;0.00;0.00;;;;;21.03;44.95;99538.75;5066518;28;50967;-48
2022/01/04 05:35:21;;;;;;;;;0.00;0.00;;;;;21.01;45.15;99533.50;5064608;28;51059;-47
2022/01/04 05:37:47;;;;;;;;;0.00;0.00;;;;;21.01;45.32;99535.41;5070571;28;51041;-51
2022/01/04 05:40:12;;;;;;;;;0.00;0.00;;;;;20.99;45.16;99524.66;5066953;28;51110;-45
2022/01/04 05:42:38;;;;;;;;;0.00;0.00;;;;;20.99;45.36;99532.09;5070217;28;51696;-47
2022/01/04 05:45:04;;;;;;;;;0.00;0.00;;;;;20.98;45.05;99523.00;5069298;28;51112;-46
2022/01/04 05:47:30;;;;;;;;;0.00;0.00;;;;;20.96;45.39;99535.38;5069872;28;51072;-45
2022/01/04 05:49:55;;;;;;;;;0.00;0.00;;;;;20.97;45.06;99524.09;5062763;28;51217;-50
2022/01/04 05:52:20;;;;;;;;;0.00;0.00;;;;;20.98;45.49;99534.03;5067497;28;51499;-46
2022/01/04 05:54:49;;;;;;;;;0.00;0.00;;;;;20.97;45.16;99537.88;5073862;28;51156;-48
2022/01/04 05:57:16;;;;;;;;;1.00;0.00;;;;;20.96;45.45;99527.94;5065759;28;51099;-45
2022/01/04 05:59:41;;;;;;;;;0.00;0.00;;;;;20.97;45.32;99543.38;5066615;28;51121;-47
2022/01/04 06:02:06;;;;;;;;;0.00;0.00;;;;;20.96;44.92;99533.44;5070087;28;51964;-46
2022/01/04 06:04:32;;;;;;;;;0.00;0.00;;;;;20.95;45.38;99537.28;5069800;28;51011;-47
2022/01/04 06:06:57;;;;;;;;;2.00;0.00;;;;;20.96;45.40;99521.59;5062412;28;51161;-45
2022/01/04 06:09:27;;;;;;;;;0.00;0.00;;;;;20.95;45.35;99519.94;5061379;28;51019;-46
2022/01/04 06:17:16;;;;;;;;;0.00;0.00;;;;;20.94;44.95;99538.34;5055411;28;51331;-44
2022/01/04 06:19:42;;;;;;;;;0.00;0.00;;;;;20.94;45.05;99526.50;5064960;28;52507;-46
2022/01/04 06:22:08;;;;;;;;;0.00;0.00;;;;;20.91;44.06;99530.63;5072709;28;52030;-44
2022/01/04 06:24:33;;;;;;;;;1.00;0.00;;;;;20.88;43.68;99536.66;5059847;28;51309;-44
2022/01/04 06:26:59;;;;;;;;;0.00;0.00;;;;;20.86;43.16;99540.75;5071055;27;50999;-45
2022/01/04 06:29:25;;;;;;;;;0.50;0.50;;;;;20.83;42.94;99549.50;5071354;28;50994;-43
2022/01/04 06:31:50;;;;;;;;;0.00;0.00;;;;;20.78;42.77;99564.03;5062946;27;51172;-43
2022/01/04 06:34:16;;;;;;;;;0.00;0.00;;;;;20.74;42.88;99566.47;5063363;28;51322;-49
2022/01/04 06:36:41;;;;;;;;;0.25;0.25;;;;;20.70;42.69;99562.56;5057034;28;51260;-44
2022/01/04 06:39:07;;;;;;;;;0.00;0.00;;;;;20.66;42.78;99561.41;5064814;28;52851;-50
2022/01/04 06:41:32;;;;;;;;;0.00;0.00;;;;;20.63;42.61;99550.06;5059468;28;52641;-45
2022/01/04 06:43:58;;;;;;;;;0.00;0.00;;;;;20.65;42.79;99553.41;5065773;28;51163;-46
2022/01/04 06:46:25;;;;;;;;;0.50;0.00;;;;;20.69;42.78;99571.06;5058678;27;51289;-45
2022/01/04 06:48:51;;;;;;;;;0.00;0.00;;;;;20.75;42.95;99565.38;5066106;28;51251;-45
2022/01/04 06:51:16;;;;;;;;;0.00;0.00;;;;;20.85;43.45;99569.38;5067564;28;52026;-46
2022/01/04 06:53:41;;;;;;;;;1.75;0.00;;;;;20.93;43.51;99566.97;5065131;28;51186;-47
2022/01/04 06:56:07;;;;;;;;;0.75;0.00;;;;;21.01;43.59;99582.22;5060329;28;51235;-45
2022/01/04 06:58:32;;;;;;;;;0.00;0.00;;;;;21.11;43.46;99592.53;5061348;28;51438;-46
2022/01/04 07:00:58;;;;;;;;;0.00;0.00;;;;;21.19;43.23;99598.44;5063778;28;51754;-47
2022/01/04 07:03:23;;;;;;;;;2.00;0.25;;;;;21.28;43.17;99598.84;5064017;28;50986;-45
2022/01/04 07:05:48;;;;;;;;;0.00;0.00;;;;;21.34;43.52;99603.31;5062822;28;50986;-48
2022/01/04 07:08:14;;;;;;;;;1.00;0.00;;;;;21.38;43.65;99600.88;5067310;28;51300;-46
2022/01/04 07:10:39;;;;;;;;;1.00;0.00;;;;;21.40;43.46;99605.03;5060298;28;51972;-46
2022/01/04 07:13:05;;;;;;;;;1.00;0.00;;;;;21.40;44.43;99593.19;5059459;28;51360;-49
2022/01/04 07:15:30;;;;;;;;;0.00;0.00;;;;;21.39;44.20;99592.34;5064195;28;51079;-48
2022/01/04 07:17:55;;;;;;;;;0.50;0.50;;;;;21.41;44.32;99598.44;5064613;28;50997;-46
2022/01/04 07:20:21;;;;;;;;;0.00;0.00;;;;;21.44;44.42;99602.59;5065259;28;51695;-48
2022/01/04 07:22:46;;;;;;;;;0.00;0.00;;;;;21.50;44.00;99599.66;5065351;27;51321;-45
2022/01/04 07:25:12;;;;;;;;;2.00;1.00;;;;;21.55;44.19;99604.38;5075666;27;51124;-48
2022/01/04 07:27:37;;;;;;;;;0.00;0.00;;;;;21.58;43.95;99590.09;5069648;27;51063;-45
2022/01/04 07:30:04;;;;;;;;;0.50;0.00;;;;;21.60;44.78;99604.44;5068480;28;51990;-46
2022/01/04 07:32:29;;;;;;;;;0.00;0.00;;;;;21.60;44.51;99616.28;5064969;28;51332;-44
2022/01/04 07:34:56;;;;;;;;;1.00;0.00;;;;;21.60;44.15;99607.19;5064498;28;51155;-44
2022/01/04 07:37:22;;;;;;;;;0.00;0.00;;;;;21.60;44.45;99620.97;5067603;28;51279;-45
2022/01/04 07:39:47;;;;;;;;;0.50;0.00;;;;;21.62;44.35;99624.28;5060521;28;51965;-47
2022/01/04 07:42:13;;;;;;;;;1.00;1.00;;;;;21.69;44.32;99627.69;5057711;28;51122;-46
2022/01/04 07:44:38;;;;;;;;;0.00;0.00;;;;;21.76;43.93;99639.31;5063868;27;51206;-51
2022/01/04 07:47:04;;;;;;;;;0.50;0.00;;;;;21.82;44.05;99641.03;5066830;28;51315;-46
2022/01/04 07:49:29;;;;;;;;;0.50;0.00;;;;;21.85;44.22;99637.75;5068311;28;51087;-44
2022/01/04 07:51:54;;;;;;;;;4.75;0.25;;;;;21.86;43.49;99641.34;5062339;28;51100;-46
2022/01/04 07:54:20;;;;;;;;;1.00;1.00;;;;;21.85;43.37;99650.72;5058861;28;51168;-45
2022/01/04 07:56:45;;;;;;;;;3.75;0.25;;;;;21.83;43.96;99653.72;5060091;28;51183;-43
2022/01/04 07:59:11;;;;;;;;;2.00;0.50;;;;;21.84;43.38;99657.31;5065264;28;51750;-46
2022/01/04 08:01:37;;;;;;;;;1.25;1.25;;;;;21.85;43.44;99668.09;5054714;28;51258;-48
2022/01/04 08:04:04;;;;;;;;;0.00;0.00;;;;;21.83;43.79;99673.03;5054898;27;51327;-49
2022/01/04 08:06:30;;;;;;;;;2.50;1.00;;;;;21.81;43.27;99689.00;5065107;28;51021;-47
2022/01/04 08:08:55;;;;;;;;;2.25;1.25;;;;;21.77;43.30;99693.34;5062413;27;51203;-47
2022/01/04 08:11:21;;;;;;;;;1.00;0.00;;;;;21.75;42.87;99689.19;5065580;28;51179;-45
2022/01/04 08:13:46;;;;;;;;;1.50;1.00;;;;;21.72;43.04;99700.75;5064003;28;51405;-48
2022/01/04 08:16:15;;;;;;;;;0.75;0.75;;;;;21.69;42.50;99701.28;5057554;28;51040;-44
2022/01/04 08:18:41;;;;;;;;;1.00;0.50;;;;;21.65;42.81;99711.13;5064127;28;51745;-48
2022/01/04 08:21:07;;;;;;;;;0.00;0.00;;;;;21.62;42.67;99718.00;5063345;28;51253;-47
2022/01/04 08:23:32;;;;;;;;;0.50;0.50;;;;;21.60;42.96;99729.28;5070687;28;51253;-45
2022/01/04 08:25:58;;;;;;;;;1.25;0.75;;;;;21.57;42.83;99720.66;5067538;27;51251;-45
2022/01/04 08:28:23;;;;;;;;;0.50;0.50;;;;;21.54;42.48;99712.91;5071452;27;51097;-46
2022/01/04 08:30:49;;;;;;;;;1.00;0.00;;;;;21.51;42.73;99705.19;5062837;28;51373;-44
2022/01/04 08:33:15;;;;;;;;;0.00;0.00;;;;;21.49;42.89;99705.44;5067939;28;51216;-47
2022/01/04 08:35:40;;;;;;;;;0.00;0.00;;;;;21.46;42.29;99702.34;5064214;28;51386;-48
2022/01/04 08:38:07;;;;;;;;;0.00;0.00;;;;;21.43;42.31;99725.72;5063230;28;51817;-43
2022/01/04 08:40:33;;;;;;;;;0.00;0.00;;;;;21.41;42.30;99738.09;5061584;28;51455;-44
2022/01/04 08:42:58;;;;;;;;;0.00;0.00;;;;;21.39;42.82;99734.78;5055817;28;51261;-48
2022/01/04 08:45:24;;;;;;;;;0.50;0.00;;;;;21.36;42.61;99729.75;5057905;28;51335;-48
2022/01/04 08:47:51;;;;;;;;;0.00;0.00;;;;;21.33;42.51;99726.44;5071524;28;54059;-43
2022/01/04 08:50:18;;;;;;;;;2.00;0.00;;;;;21.31;42.46;99745.13;5057357;27;51678;-51
2022/01/04 08:52:43;;;;;;;;;0.50;0.50;;;;;21.28;42.27;99742.91;5064268;28;51774;-45
2022/01/04 08:55:10;;;;;;;;;1.00;0.00;;;;;21.28;42.33;99751.16;5059806;28;51187;-48
2022/01/04 08:57:36;;;;;;;;;1.00;0.00;;;;;21.25;42.41;99743.34;5066052;28;51998;-48
2022/01/04 09:00:04;;;;;;;;;0.00;0.00;;;;;21.24;42.79;99746.38;5058240;28;51152;-47
2022/01/04 09:02:31;;;;;;;;;0.00;0.00;;;;;21.22;42.36;99740.28;5070151;28;51113;-45
2022/01/04 09:04:57;;;;;;;;;1.00;1.00;;;;;21.20;42.61;99743.28;5061727;28;51533;-45
2022/01/04 09:07:22;;;;;;;;;0.75;0.75;;;;;21.18;42.25;99750.97;5063502;28;51979;-44
2022/01/04 09:09:49;;;;;;;;;1.00;0.00;;;;;21.17;42.73;99746.56;5070655;28;51159;-47
2022/01/04 09:12:15;;;;;;;;;1.25;1.00;;;;;21.15;42.25;99747.88;5063586;28;51219;-47
2022/01/04 09:14:56;;;;;;;;;0.75;0.75;;;;;21.12;42.32;99760.25;5071463;28;51312;-46
2022/01/04 09:20:10;;;;;;;;;0.25;0.25;;;;;21.09;42.13;99774.53;5063056;28;51056;-44
2022/01/04 09:22:36;;;;;;;;;0.50;0.50;;;;;21.08;42.61;99755.50;5060479;28;51944;-46
2022/01/04 09:25:02;;;;;;;;;0.00;0.00;;;;;21.07;42.75;99757.44;5064209;28;51882;-46
2022/01/04 09:27:29;;;;;;;;;1.25;0.00;;;;;21.05;42.30;99751.34;5061361;27;51933;-46
2022/01/04 09:29:55;;;;;;;;;2.00;0.75;;;;;21.04;42.68;99760.66;5068067;28;51020;-47
2022/01/04 09:32:21;;;;;;;;;0.50;0.50;;;;;21.03;42.74;99754.31;5060826;27;51163;-46
2022/01/04 09:34:46;;;;;;;;;1.00;1.00;;;;;21.02;42.73;99746.31;5068715;28;50955;-45
2022/01/04 09:37:12;;;;;;;;;0.00;0.00;;;;;21.00;42.41;99749.31;5062336;28;51161;-46
2022/01/04 09:39:38;;;;;;;;;1.75;0.00;;;;;20.98;42.68;99753.44;5064200;28;51285;-49
2022/01/04 09:42:04;;;;;;;;;2.00;0.75;;;;;20.98;42.81;99736.91;5064218;28;51161;-48
2022/01/04 09:44:30;;;;;;;;;1.50;0.00;;;;;20.96;42.38;99728.06;5059529;27;51175;-46
2022/01/04 09:46:58;;;;;;;;;0.00;0.00;;;;;20.95;42.71;99741.00;5059398;28;52085;-47
2022/01/04 09:49:23;;;;;;;;;1.25;1.00;;;;;20.95;42.79;99751.19;5057923;28;51298;-43
2022/01/04 09:51:50;;;;;;;;;1.00;1.00;;;;;20.93;42.75;99759.66;5063747;28;51297;-45
2022/01/04 09:54:22;;;;;;;;;0.50;0.00;;;;;20.92;42.30;99766.25;5061446;28;51016;-50
2022/01/04 09:56:48;;;;;;;;;1.00;1.00;;;;;20.91;42.43;99766.53;5057449;28;52280;-48
2022/01/04 09:59:14;;;;;;;;;1.25;0.50;;;;;20.91;42.74;99777.53;5062782;28;51282;-46
2022/01/04 10:01:40;;;;;;;;;0.00;0.00;;;;;20.88;42.72;99781.63;5075085;28;51218;-46
2022/01/04 10:04:06;;;;;;;;;0.00;0.00;;;;;20.87;42.57;99788.22;5068275;27;51048;-48
2022/01/04 10:06:33;;;;;;;;;1.00;1.00;;;;;20.87;42.61;99795.66;5064398;28;51181;-47
2022/01/04 10:09:00;;;;;;;;;0.50;0.50;;;;;20.87;42.38;99798.41;5068935;28;51207;-48
2022/01/04 10:11:37;;;;;;;;;0.00;0.00;;;;;20.85;42.57;99787.63;5059308;28;51155;-45
2022/01/04 10:14:29;;;;;;;;;1.00;0.00;;;;;20.84;42.35;99791.47;5060135;28;51354;-45
2022/01/04 10:17:01;;;;;;;;;0.00;0.00;;;;;20.83;42.99;99797.22;5063231;28;52834;-47
2022/01/04 10:19:27;;;;;;;;;0.75;0.75;;;;;20.82;43.17;99807.38;5058305;28;51493;-44
2022/01/04 10:22:09;;;;;;;;;0.75;0.75;;;;;20.80;42.64;99804.06;5063893;28;51313;-43
2022/01/04 10:24:34;;;;;;;;;0.00;0.00;;;;;20.80;43.08;99808.72;5064950;28;51379;-46
2022/01/04 10:27:30;;;;;;;;;0.00;0.00;;;;;20.80;42.71;99803.22;5073706;27;51820;-50
2022/01/04 10:30:17;;;;;;;;;0.00;0.00;;;;;20.79;43.06;99788.63;5058879;28;51278;-47
2022/01/04 10:32:43;;;;;;;;;1.00;1.00;;;;;20.78;43.19;99783.38;5062733;28;51929;-45
2022/01/04 10:35:09;;;;;;;;;1.50;0.00;;;;;20.78;43.28;99795.22;5066286;28;51002;-45
2022/01/04 10:37:40;;;;;;;;;1.75;0.75;;;;;20.78;42.95;99791.63;5064255;28;51170;-43
2022/01/04 10:40:08;;;;;;;;;0.50;0.00;;;;;20.77;42.81;99788.06;5066523;28;51057;-47
2022/01/04 10:42:34;;;;;;;;;0.00;0.00;;;;;20.77;43.53;99778.97;5066424;28;51145;-45
2022/01/04 10:44:59;;;;;;;;;0.00;0.00;;;;;20.76;43.42;99778.13;5067090;28;51145;-48
2022/01/04 10:47:27;;;;;;;;;0.00;0.00;;;;;20.75;42.91;99774.53;5068133;28;52861;-47
2022/01/04 10:49:52;;;;;;;;;1.00;1.00;;;;;20.75;43.38;99779.22;5068108;28;51400;-46
2022/01/04 10:52:22;;;;;;;;;1.00;0.00;;;;;20.74;43.38;99778.38;5061420;28;51148;-45
2022/01/04 10:55:14;;;;;;;;;0.25;0.25;;;;;20.75;43.25;99779.22;5059118;28;51458;-45
2022/01/04 10:57:40;;;;;;;;;1.00;1.00;;;;;20.73;43.54;99775.84;5062074;28;51090;-45
2022/01/04 11:00:15;;;;;;;;;1.25;1.00;;;;;20.73;43.26;99779.44;5064416;28;51203;-46
2022/01/04 11:02:41;;;;;;;;;1.00;1.00;;;;;20.71;43.75;99775.28;5065120;28;51320;-48
2022/01/04 11:05:14;;;;;;;;;0.00;0.00;;;;;20.72;43.31;99777.78;5073953;28;51220;-45
2022/01/04 11:08:03;;;;;;;;;0.00;0.00;;;;;20.72;43.62;99780.53;5062624;28;52013;-48
2022/01/04 11:10:34;;;;;;;;;0.00;0.00;;;;;20.71;43.41;99784.38;5059988;28;51232;-43
2022/01/04 11:13:00;;;;;;;;;1.50;0.00;;;;;20.70;43.60;99771.69;5065691;28;51158;-43
2022/01/04 11:15:26;;;;;;;;;0.75;0.00;;;;;20.70;43.68;99766.19;5066088;28;51190;-48
2022/01/04 11:17:52;;;;;;;;;0.00;0.00;;;;;20.70;44.04;99770.84;5059180;28;51862;-46
2022/01/04 11:20:18;;;;;;;;;0.75;0.75;;;;;20.70;44.09;99777.19;5064400;27;51459;-49
2022/01/04 11:22:45;;;;;;;;;1.00;0.00;;;;;20.70;44.05;99779.94;5063516;28;51320;-49
2022/01/04 11:25:13;;;;;;;;;0.00;0.00;;;;;20.70;43.97;99774.44;5060250;27;51806;-46
2022/01/04 11:27:40;;;;;;;;;0.75;0.75;;;;;20.68;44.24;99779.38;5066196;27;52303;-45
2022/01/04 11:30:16;;;;;;;;;0.00;0.00;;;;;20.69;44.00;99777.44;5063224;28;51364;-48
2022/01/04 11:32:45;;;;;;;;;0.00;0.00;;;;;20.69;44.10;99781.03;5067763;28;51099;-45
2022/01/04 11:35:21;;;;;;;;;0.75;0.00;;;;;20.69;43.99;99785.69;5058915;28;51232;-49
2022/01/04 11:37:56;;;;;;;;;1.00;0.00;;;;;20.67;44.15;99780.44;5065699;28;52841;-48
2022/01/04 11:40:29;;;;;;;;;0.00;0.00;;;;;20.68;44.35;99778.53;5065658;28;51381;-50
2022/01/04 11:42:55;;;;;;;;;0.75;0.75;;;;;20.67;44.24;99774.94;5064461;28;51299;-46